Wilson Maas — 8PSZ — position and weather

sailwx.info

Track history (hours):
 
Tides and Currents Weather Stations Pressure Air Temp Water Temp Dewpoint Dewpoint Depression Visibility Wind Speed Wind Dir Waves Ship Positions

Wilson Maas

Last reported at 2014-Aug-01 07:31 UTC. Time now 2014-Aug-01 09:53 UTC.
Position N 51°42' E 004°35'.

Length 78 m; draft 3.7 m.

Type: Cargo ship. MMSI: 314217000.

Date/timePositionNaut miles runAvg speedWind from/ knotsBaromVisibWave heightAir tempDewpointWater temp
2014-Aug-01 07:31N 51°42' E 004°35'0 0.0
2014-Aug-01 05:31N 51°42' E 004°35'0 0.0
2014-Jul-31 20:23N 51°42' E 004°35'6 7.8
2014-Jul-31 19:33N 51°48' E 004°37'10 9.8
2014-Jul-31 18:33N 51°51' E 004°22'9 9.2
2014-Jul-31 17:34N 51°57' E 004°11'1111.1
2014-Jul-31 16:33N 52°01' E 003°54'9 8.7
2014-Jul-31 15:34N 52°08' E 003°47'1110.1
2014-Jul-31 14:31N 52°19' E 003°48'10510.3
2014-Jul-31 04:20N 53°57' E 004°47'  
2014-Jul-28 03:33N 63°28' E 010°13'4 4.0
2014-Jul-28 02:32N 63°26' E 010°22'0 0.0
2014-Jul-28 01:32N 63°26' E 010°22'0 0.0
2014-Jul-28 00:32N 63°26' E 010°22'0 0.0
2014-Jul-27 23:32N 63°26' E 010°22'0 0.1
2014-Jul-27 22:32N 63°26' E 010°22'0 0.0
2014-Jul-27 21:32N 63°26' E 010°22'0 0.0
2014-Jul-27 20:32N 63°26' E 010°22'0 0.0
2014-Jul-27 19:32N 63°26' E 010°22'0 0.0
2014-Jul-27 18:32N 63°26' E 010°22'0 0.1
2014-Jul-27 17:32N 63°26' E 010°22'0 0.0
2014-Jul-27 16:29N 63°26' E 010°22'0 0.0
2014-Jul-27 15:32N 63°26' E 010°22'0 0.1
2014-Jul-27 14:32N 63°26' E 010°22'0 0.0
2014-Jul-27 13:32N 63°26' E 010°22'0 0.0
2014-Jul-27 12:32N 63°26' E 010°22'0 0.0
2014-Jul-27 11:32N 63°26' E 010°22'0 0.0
2014-Jul-27 10:32N 63°26' E 010°22'0 0.0
2014-Jul-27 09:32N 63°26' E 010°22'0 0.0
2014-Jul-27 08:32N 63°26' E 010°22'0 0.1
2014-Jul-27 07:33N 63°26' E 010°22'0 0.0
2014-Jul-27 06:34N 63°26' E 010°22'0 0.1
2014-Jul-27 05:33N 63°26' E 010°22'0 0.1
2014-Jul-27 04:33N 63°26' E 010°22'0 0.0
2014-Jul-27 03:34N 63°26' E 010°22'0 0.1
2014-Jul-27 02:33N 63°26' E 010°22'0 0.0
2014-Jul-27 01:34N 63°26' E 010°22'0 0.0
2014-Jul-27 00:33N 63°26' E 010°22'0 0.1
2014-Jul-26 23:33N 63°26' E 010°22'0 0.0
2014-Jul-26 22:34N 63°26' E 010°22'0 0.0
2014-Jul-26 21:33N 63°26' E 010°22'0 0.1
2014-Jul-26 20:33N 63°26' E 010°22'0 0.0
2014-Jul-26 19:33N 63°26' E 010°22'0 0.0
2014-Jul-26 18:33N 63°26' E 010°22'0 0.0
2014-Jul-26 17:33N 63°26' E 010°22'0 0.0
2014-Jul-26 16:33N 63°26' E 010°22'0 0.1
2014-Jul-26 15:33N 63°26' E 010°22'0 0.1
2014-Jul-26 14:34N 63°26' E 010°22'0 0.0
2014-Jul-26 13:33N 63°26' E 010°22'0 0.1
2014-Jul-26 12:33N 63°26' E 010°22'0 0.1
2014-Jul-26 11:33N 63°26' E 010°22'0 0.1
2014-Jul-26 10:33N 63°26' E 010°22'0 0.1
2014-Jul-26 09:34N 63°26' E 010°22'0 0.0
2014-Jul-26 08:33N 63°26' E 010°22'0 0.0
2014-Jul-26 07:33N 63°26' E 010°22'0 0.0
2014-Jul-26 06:33N 63°26' E 010°22'0 0.0
2014-Jul-26 05:33N 63°26' E 010°22'0 0.0
2014-Jul-26 04:34N 63°26' E 010°22'0 0.0
2014-Jul-26 03:33N 63°26' E 010°22'0 0.0
2014-Jul-26 02:34N 63°26' E 010°22'0 0.0
2014-Jul-26 01:34N 63°26' E 010°22'0 0.0
2014-Jul-26 00:33N 63°26' E 010°22'0 0.0
2014-Jul-25 23:33N 63°26' E 010°22'0 0.0
2014-Jul-25 22:33N 63°26' E 010°22'0 0.0
2014-Jul-25 21:33N 63°26' E 010°22'0 0.0
2014-Jul-25 20:33N 63°26' E 010°22'1 0.6
2014-Jul-25 19:33N 63°27' E 010°21'9 8.9
2014-Jul-25 18:30N 63°24' E 010°01'8 0.9
2014-Jul-25 09:33N 63°28' E 010°16'4 4.3
2014-Jul-25 08:31N 63°27' E 010°25'0 0.0
2014-Jul-25 07:31N 63°27' E 010°25'0 0.0
2014-Jul-25 06:31N 63°27' E 010°25'0 0.0
2014-Jul-25 05:31N 63°27' E 010°25'0 0.0
2014-Jul-25 04:31N 63°27' E 010°25'0 0.0
2014-Jul-25 03:31N 63°27' E 010°25'0 0.0
2014-Jul-25 02:31N 63°27' E 010°25'2 2.2
2014-Jul-25 01:34N 63°28' E 010°23'85 8.9
2014-Jul-24 16:06N 63°13' E 007°17'247 9.0
2014-Jul-23 12:34N 59°18' E 004°36'12 9.3
2014-Jul-23 11:18N 59°06' E 004°38'7 9.0
2014-Jul-23 10:33N 58°59' E 004°38'10 9.2
2014-Jul-23 09:30N 58°50' E 004°39'9 9.8
2014-Jul-23 08:34N 58°40' E 004°39'1010.3
2014-Jul-23 07:34N 58°30' E 004°38'  
Track history (hours):
 
Tides and Currents Weather Stations Pressure Air Temp Water Temp Dewpoint Dewpoint Depression Visibility Wind Speed Wind Dir Waves Ship Positions

Wilson Maas

Last reported at 2014-Aug-01 07:31 UTC. Time now 2014-Aug-01 09:53 UTC.
Position N 51°42' E 004°35'.

Length 78 m; draft 3.7 m.

Type: Cargo ship. MMSI: 314217000.

Date/timePositionNaut miles runAvg speedWind from/ knotsBaromVisibWave heightAir tempDewpointWater temp
2014-Aug-01 07:31N 51°42' E 004°35'0 0.0
2014-Aug-01 05:31N 51°42' E 004°35'0 0.0
2014-Jul-31 20:23N 51°42' E 004°35'6 7.8
2014-Jul-31 19:33N 51°48' E 004°37'10 9.8
2014-Jul-31 18:33N 51°51' E 004°22'9 9.2
2014-Jul-31 17:34N 51°57' E 004°11'1111.1
2014-Jul-31 16:33N 52°01' E 003°54'9 8.7
2014-Jul-31 15:34N 52°08' E 003°47'1110.1
2014-Jul-31 14:31N 52°19' E 003°48'10510.3
2014-Jul-31 04:20N 53°57' E 004°47'  
2014-Jul-28 03:33N 63°28' E 010°13'4 4.0
2014-Jul-28 02:32N 63°26' E 010°22'0 0.0
2014-Jul-28 01:32N 63°26' E 010°22'0 0.0
2014-Jul-28 00:32N 63°26' E 010°22'0 0.0
2014-Jul-27 23:32N 63°26' E 010°22'0 0.1
2014-Jul-27 22:32N 63°26' E 010°22'0 0.0
2014-Jul-27 21:32N 63°26' E 010°22'0 0.0
2014-Jul-27 20:32N 63°26' E 010°22'0 0.0
2014-Jul-27 19:32N 63°26' E 010°22'0 0.0
2014-Jul-27 18:32N 63°26' E 010°22'0 0.1
2014-Jul-27 17:32N 63°26' E 010°22'0 0.0
2014-Jul-27 16:29N 63°26' E 010°22'0 0.0
2014-Jul-27 15:32N 63°26' E 010°22'0 0.1
2014-Jul-27 14:32N 63°26' E 010°22'0 0.0
2014-Jul-27 13:32N 63°26' E 010°22'0 0.0
2014-Jul-27 12:32N 63°26' E 010°22'0 0.0
2014-Jul-27 11:32N 63°26' E 010°22'0 0.0
2014-Jul-27 10:32N 63°26' E 010°22'0 0.0
2014-Jul-27 09:32N 63°26' E 010°22'0 0.0
2014-Jul-27 08:32N 63°26' E 010°22'0 0.1
2014-Jul-27 07:33N 63°26' E 010°22'0 0.0
2014-Jul-27 06:34N 63°26' E 010°22'0 0.1
2014-Jul-27 05:33N 63°26' E 010°22'0 0.1
2014-Jul-27 04:33N 63°26' E 010°22'0 0.0
2014-Jul-27 03:34N 63°26' E 010°22'0 0.1
2014-Jul-27 02:33N 63°26' E 010°22'0 0.0
2014-Jul-27 01:34N 63°26' E 010°22'0 0.0
2014-Jul-27 00:33N 63°26' E 010°22'0 0.1
2014-Jul-26 23:33N 63°26' E 010°22'0 0.0
2014-Jul-26 22:34N 63°26' E 010°22'0 0.0
2014-Jul-26 21:33N 63°26' E 010°22'0 0.1
2014-Jul-26 20:33N 63°26' E 010°22'0 0.0
2014-Jul-26 19:33N 63°26' E 010°22'0 0.0
2014-Jul-26 18:33N 63°26' E 010°22'0 0.0
2014-Jul-26 17:33N 63°26' E 010°22'0 0.0
2014-Jul-26 16:33N 63°26' E 010°22'0 0.1
2014-Jul-26 15:33N 63°26' E 010°22'0 0.1
2014-Jul-26 14:34N 63°26' E 010°22'0 0.0
2014-Jul-26 13:33N 63°26' E 010°22'0 0.1
2014-Jul-26 12:33N 63°26' E 010°22'0 0.1
2014-Jul-26 11:33N 63°26' E 010°22'0 0.1
2014-Jul-26 10:33N 63°26' E 010°22'0 0.1
2014-Jul-26 09:34N 63°26' E 010°22'0 0.0
2014-Jul-26 08:33N 63°26' E 010°22'0 0.0
2014-Jul-26 07:33N 63°26' E 010°22'0 0.0
2014-Jul-26 06:33N 63°26' E 010°22'0 0.0
2014-Jul-26 05:33N 63°26' E 010°22'0 0.0
2014-Jul-26 04:34N 63°26' E 010°22'0 0.0
2014-Jul-26 03:33N 63°26' E 010°22'0 0.0
2014-Jul-26 02:34N 63°26' E 010°22'0 0.0
2014-Jul-26 01:34N 63°26' E 010°22'0 0.0
2014-Jul-26 00:33N 63°26' E 010°22'0 0.0
2014-Jul-25 23:33N 63°26' E 010°22'0 0.0
2014-Jul-25 22:33N 63°26' E 010°22'0 0.0
2014-Jul-25 21:33N 63°26' E 010°22'0 0.0
2014-Jul-25 20:33N 63°26' E 010°22'1 0.6
2014-Jul-25 19:33N 63°27' E 010°21'9 8.9
2014-Jul-25 18:30N 63°24' E 010°01'8 0.9
2014-Jul-25 09:33N 63°28' E 010°16'4 4.3
2014-Jul-25 08:31N 63°27' E 010°25'0 0.0
2014-Jul-25 07:31N 63°27' E 010°25'0 0.0
2014-Jul-25 06:31N 63°27' E 010°25'0 0.0
2014-Jul-25 05:31N 63°27' E 010°25'0 0.0
2014-Jul-25 04:31N 63°27' E 010°25'0 0.0
2014-Jul-25 03:31N 63°27' E 010°25'0 0.0
2014-Jul-25 02:31N 63°27' E 010°25'2 2.2
2014-Jul-25 01:34N 63°28' E 010°23'85 8.9
2014-Jul-24 16:06N 63°13' E 007°17'247 9.0
2014-Jul-23 12:34N 59°18' E 004°36'12 9.3
2014-Jul-23 11:18N 59°06' E 004°38'7 9.0
2014-Jul-23 10:33N 58°59' E 004°38'10 9.2
2014-Jul-23 09:30N 58°50' E 004°39'9 9.8
2014-Jul-23 08:34N 58°40' E 004°39'1010.3
2014-Jul-23 07:34N 58°30' E 004°38'  

Dump ship's entire track history